createdAt,value
2022-08-08T00:00:56.901Z,65.05
2022-08-08T00:02:30.671Z,66.28
2022-08-08T00:04:09.726Z,65.23
2022-08-08T00:06:10.682Z,63.55
2022-08-08T00:08:12.379Z,63.61
2022-08-08T00:10:13.801Z,64.5
2022-08-08T00:12:15.610Z,63.37
2022-08-08T00:14:47.843Z,63.1
2022-08-08T00:16:17.681Z,62.78
2022-08-08T00:18:18.701Z,61.94
2022-08-08T00:20:20.388Z,62.17
2022-08-08T00:22:22.269Z,62.76
2022-08-08T00:24:29.843Z,63.26
2022-08-08T00:26:26.566Z,64.01
2022-08-08T00:28:34.668Z,64.31
2022-08-08T00:32:34.841Z,65.67
2022-08-08T00:34:30.801Z,64.71
2022-08-08T00:36:35.046Z,64.56
2022-08-08T00:38:44.689Z,64.95
2022-08-08T00:42:36.883Z,64.72
2022-08-08T00:44:38.403Z,64.85
2022-08-08T00:46:56.263Z,64.61
2022-08-08T00:48:41.597Z,64.81
2022-08-08T00:50:48.353Z,64.96
2022-08-08T00:52:48.611Z,65.47
2022-08-08T00:54:46.313Z,65.99
2022-08-08T00:56:48.135Z,65.7
2022-08-08T00:58:54.293Z,66.01
2022-08-08T01:00:51.272Z,66.18
2022-08-08T01:03:15.612Z,66.28
2022-08-08T01:04:52.860Z,66.5
2022-08-08T01:06:57.318Z,66.85
2022-08-08T01:08:55.321Z,67.03
2022-08-08T01:10:56.592Z,67.25
2022-08-08T01:12:57.711Z,67.3
2022-08-08T01:15:00.436Z,68.17
2022-08-08T01:17:00.254Z,68.5
2022-08-08T01:19:02.540Z,68.55
2022-08-08T01:21:03.276Z,68.48
2022-08-08T01:23:05.130Z,68.69
2022-08-08T01:25:06.104Z,68.25
2022-08-08T01:27:10.728Z,68.41
2022-08-08T01:29:08.898Z,68.62
2022-08-08T01:31:10.327Z,68.14
2022-08-08T01:33:16.098Z,68.41
2022-08-08T01:35:13.015Z,68.77
2022-08-08T01:37:17.339Z,69.07
2022-08-08T01:39:20.165Z,69.58
2022-08-08T01:41:17.428Z,70.24
2022-08-08T01:43:18.651Z,70.3
2022-08-08T01:45:19.691Z,70.35
2022-08-08T01:46:03.543Z,70.29
2022-08-08T01:48:15.273Z,70.34
2022-08-08T01:52:52.659Z,69.71
2022-08-08T01:55:15.295Z,69.77
2022-08-08T01:56:30.133Z,70.01
2022-08-08T01:58:13.722Z,70.15
2022-08-08T02:02:15.798Z,70.51
2022-08-08T02:04:16.293Z,70.99
2022-08-08T02:08:19.340Z,71.06
2022-08-08T02:10:29.248Z,71.07
2022-08-08T02:12:21.900Z,70.77
2022-08-08T02:14:23.369Z,71.29
2022-08-08T02:16:25.103Z,71.33
2022-08-08T02:18:26.802Z,70.78
2022-08-08T02:21:00.447Z,70.67
2022-08-08T02:22:31.247Z,70.55
2022-08-08T02:24:30.919Z,70.34
2022-08-08T02:26:32.182Z,70.41
2022-08-08T02:28:35.239Z,71.12
2022-08-08T02:30:34.704Z,71.84
2022-08-08T02:32:36.537Z,72.41
2022-08-08T02:34:37.981Z,73.41
2022-08-08T02:36:39.639Z,73.27
2022-08-08T02:38:40.921Z,73.88
2022-08-08T02:42:43.412Z,74.45
2022-08-08T02:44:52.854Z,74.7
2022-08-08T02:46:45.684Z,75.15
2022-08-08T02:48:46.651Z,75.95
2022-08-08T02:50:52.979Z,76.23
2022-08-08T02:52:50.507Z,75.08
2022-08-08T02:54:50.736Z,74.75
2022-08-08T02:56:52.446Z,74.74
2022-08-08T03:00:55.451Z,74.46
2022-08-08T03:02:57.162Z,74.3
2022-08-08T03:05:02.024Z,74.01
2022-08-08T03:06:59.806Z,73.98
2022-08-08T03:09:01.585Z,74
2022-08-08T03:11:02.599Z,74.24
2022-08-08T03:13:07.312Z,74.66
2022-08-08T03:15:55.846Z,74.67
2022-08-08T03:17:06.312Z,74.26
2022-08-08T03:19:07.829Z,74.35
2022-08-08T03:21:10.310Z,74.5
2022-08-08T03:23:10.476Z,75.43
2022-08-08T03:25:14.925Z,75.08
2022-08-08T03:27:12.848Z,75.76
2022-08-08T03:29:15.133Z,75.4
2022-08-08T03:31:22.841Z,76.22
2022-08-08T03:33:54.280Z,76.55
2022-08-08T03:35:18.676Z,75.93
2022-08-08T03:37:59.214Z,75.41
2022-08-08T03:39:22.457Z,75.61
2022-08-08T03:42:04.290Z,75.59
2022-08-08T03:43:24.746Z,75.54
2022-08-08T03:46:03.805Z,75.52
2022-08-08T03:47:39.598Z,75.74
2022-08-08T03:49:38.182Z,75.99
2022-08-08T03:51:40.770Z,77.01
2022-08-08T03:53:38.238Z,77.47
2022-08-08T03:55:55.436Z,78.47
2022-08-08T03:58:10.088Z,78.5
2022-08-08T03:59:57.201Z,78.47
2022-08-08T04:02:02.494Z,78.34
2022-08-08T04:03:56.926Z,78.23
2022-08-08T04:05:47.399Z,78.31
2022-08-08T04:07:42.466Z,78.6
2022-08-08T04:09:59.265Z,78.75
2022-08-08T04:11:48.277Z,78.74
2022-08-08T04:14:02.938Z,78.85
2022-08-08T04:15:54.458Z,78.87
2022-08-08T04:17:58.619Z,79.26
2022-08-08T04:19:51.853Z,78.98
2022-08-08T04:21:54.129Z,78.52
2022-08-08T04:24:04.889Z,78.56
2022-08-08T04:25:55.983Z,78.8
2022-08-08T04:28:03.783Z,79.74
2022-08-08T04:30:01.219Z,80.07
2022-08-08T04:32:00.531Z,79.99
2022-08-08T04:34:01.204Z,79.86
2022-08-08T04:36:02.980Z,79.13
2022-08-08T04:38:04.910Z,78.73
2022-08-08T04:40:07.683Z,79.36
2022-08-08T04:42:08.146Z,79.34
2022-08-08T04:44:09.290Z,79.41
2022-08-08T04:46:10.891Z,78.86
2022-08-08T04:48:12.325Z,78.48
2022-08-08T04:50:14.498Z,78.18
2022-08-08T04:52:15.606Z,76.82
2022-08-08T04:54:38.687Z,76.55
2022-08-08T04:56:18.252Z,76.53
2022-08-08T04:58:19.953Z,74.96
2022-08-08T05:00:21.772Z,72.27
2022-08-08T05:02:28.695Z,72.93
2022-08-08T05:04:25.011Z,73.39
2022-08-08T05:06:28.017Z,73.29
2022-08-08T05:08:28.748Z,71.43
2022-08-08T05:10:29.056Z,69.37
2022-08-08T05:14:31.836Z,66.93
2022-08-08T05:16:48.882Z,65.44
2022-08-08T05:18:34.682Z,63.54
2022-08-08T05:20:38.891Z,60.67
2022-08-08T05:22:36.570Z,59.11
2022-08-08T05:24:37.764Z,58.18
2022-08-08T05:26:38.670Z,57.59
2022-08-08T05:28:48.547Z,57.96
2022-08-08T05:30:41.817Z,57.96
2022-08-08T05:32:44.041Z,59.41
2022-08-08T05:34:45.245Z,61.24
2022-08-08T05:36:46.422Z,61.75
2022-08-08T05:38:47.585Z,62.02
2022-08-08T05:40:49.559Z,62.91
2022-08-08T05:42:50.296Z,63.5
2022-08-08T05:46:53.196Z,59.75
2022-08-08T05:48:54.330Z,57.71
2022-08-08T05:50:58.892Z,58.78
2022-08-08T05:52:56.140Z,60.55
2022-08-08T05:56:58.814Z,59.35
2022-08-08T05:59:03.507Z,58.44
2022-08-08T06:01:00.898Z,58.66
2022-08-08T06:03:02.178Z,56
2022-08-08T06:05:06.970Z,56.66
2022-08-08T06:07:04.579Z,57.95
2022-08-08T06:09:42.203Z,58
2022-08-08T06:11:06.373Z,56.58
2022-08-08T06:13:07.685Z,57.41
2022-08-08T06:15:09.164Z,57.3
2022-08-08T06:17:10.650Z,56.19
2022-08-08T06:19:15.956Z,57.31
2022-08-08T06:21:28.678Z,55.88
2022-08-08T06:23:15.786Z,57.32
2022-08-08T06:25:16.364Z,55.77
2022-08-08T06:27:17.521Z,54.7
2022-08-08T06:29:26.936Z,52.89
2022-08-08T06:31:20.424Z,54.57
2022-08-08T06:33:36.762Z,55.44
2022-08-08T06:36:05.176Z,53.91
2022-08-08T06:39:25.904Z,54.66
2022-08-08T06:41:27.259Z,56.07
2022-08-08T06:43:30.827Z,54.67
2022-08-08T06:45:31.105Z,52.9
2022-08-08T06:47:33.661Z,54.41
2022-08-08T06:49:54.605Z,52.01
2022-08-08T06:51:47.307Z,52.01
2022-08-08T06:53:38.817Z,52.23
2022-08-08T06:57:44.387Z,51.8
2022-08-08T07:00:01.696Z,49.51
2022-08-08T07:02:18.540Z,49.9
2022-08-08T07:03:51.802Z,48.92
2022-08-08T07:05:44.835Z,48.42
2022-08-08T07:07:46.567Z,46.29
2022-08-08T07:09:56.221Z,46.21
2022-08-08T07:11:50.916Z,47.22
2022-08-08T07:14:00.128Z,48.51
2022-08-08T07:16:05.527Z,46.63
2022-08-08T07:18:00.741Z,46.69
2022-08-08T07:19:56.038Z,46.68
2022-08-08T07:22:00.638Z,46.84
2022-08-08T07:24:02.355Z,44.79
2022-08-08T07:25:59.303Z,45.94
2022-08-08T07:28:00.711Z,46.56
2022-08-08T07:30:08.363Z,44.48
2022-08-08T07:32:02.733Z,44.72
2022-08-08T07:34:03.795Z,44.43
2022-08-08T07:38:10.728Z,42.94
2022-08-08T07:40:07.278Z,42.64
2022-08-08T07:42:08.022Z,41.55
2022-08-08T07:44:12.322Z,41.05
2022-08-08T07:46:18.507Z,40.98
2022-08-08T07:48:11.482Z,39.8
2022-08-08T07:50:13.249Z,39.84
2022-08-08T07:52:15.709Z,39.95
2022-08-08T07:54:24.263Z,39.9
2022-08-08T07:56:35.268Z,40.54
2022-08-08T07:58:18.796Z,40.01
2022-08-08T08:00:19.650Z,39.75
2022-08-08T08:02:32.683Z,39.13
2022-08-08T08:04:21.356Z,40.69
2022-08-08T08:06:27.196Z,40.5
2022-08-08T08:08:24.570Z,39.67
2022-08-08T08:10:29.945Z,39.71
2022-08-08T08:12:31.861Z,41.11
2022-08-08T08:14:28.415Z,39.97
2022-08-08T08:16:32.099Z,39.35
2022-08-08T08:20:32.491Z,40.01
2022-08-08T08:22:34.025Z,40.45
2022-08-08T08:24:35.603Z,40.22
2022-08-08T08:26:36.334Z,39.69
2022-08-08T08:28:37.866Z,40.39
2022-08-08T08:30:38.785Z,38.82
2022-08-08T08:31:22.437Z,39.1
2022-08-08T08:33:23.537Z,39.36
2022-08-08T08:35:29.665Z,39.2
2022-08-08T08:37:30.074Z,39.51
2022-08-08T08:39:39.426Z,38.49
2022-08-08T08:41:30.910Z,38.51
2022-08-08T08:43:31.496Z,37.04
2022-08-08T08:47:43.733Z,37.84
2022-08-08T08:49:34.973Z,36.44
2022-08-08T08:51:37.778Z,35.89
2022-08-08T08:57:40.060Z,35.95
2022-08-08T08:59:59.130Z,35.2
2022-08-08T09:03:46.229Z,33.86
2022-08-08T09:05:49.439Z,34.45
2022-08-08T09:07:52.063Z,34.61
2022-08-08T09:09:47.602Z,34.13
2022-08-08T09:11:52.126Z,34.29
2022-08-08T09:13:49.348Z,33.94
2022-08-08T09:17:55.923Z,33.63
2022-08-08T09:21:55.476Z,34.61
2022-08-08T09:22:04.992Z,33.11
2022-08-08T09:23:56.265Z,31.82
2022-08-08T09:26:00.630Z,32.18
2022-08-08T09:27:58.776Z,32.34
2022-08-08T09:29:59.810Z,31.76
2022-08-08T09:32:00.909Z,31.01
2022-08-08T09:34:15.621Z,31.92
2022-08-08T09:36:04.085Z,31.08
2022-08-08T09:38:05.979Z,30.9
2022-08-08T09:40:10.921Z,31.14
2022-08-08T09:42:14.760Z,30.14
2022-08-08T09:44:15.258Z,29.64
2022-08-08T09:46:11.134Z,29.46
2022-08-08T09:48:18.034Z,28.93
2022-08-08T09:50:13.827Z,29.31
2022-08-08T09:52:16.300Z,30.23
2022-08-08T09:54:18.449Z,28.23
2022-08-08T09:56:21.882Z,29.02
2022-08-08T09:58:20.433Z,29.16
2022-08-08T10:00:37.601Z,29.37
2022-08-08T10:02:20.661Z,29.01
2022-08-08T10:04:38.628Z,29.81
2022-08-08T10:06:26.847Z,30.36
2022-08-08T10:08:32.757Z,28.23
2022-08-08T10:10:30.265Z,29.06
2022-08-08T10:12:31.587Z,28.44
2022-08-08T10:14:35.300Z,27.82
2022-08-08T10:16:30.784Z,27.91
2022-08-08T10:18:32.950Z,28.06
2022-08-08T10:20:40.405Z,28.89
2022-08-08T10:22:35.848Z,27.42
2022-08-08T10:24:38.018Z,28.67
2022-08-08T10:26:40.688Z,28.24
2022-08-08T10:28:38.230Z,28.53
2022-08-08T10:30:51.709Z,28.83
2022-08-08T10:34:42.116Z,27.44
2022-08-08T10:38:44.244Z,27.49
2022-08-08T10:40:46.037Z,28.02
2022-08-08T10:44:49.326Z,27.09
2022-08-08T10:46:50.422Z,26.59
2022-08-08T10:48:55.767Z,27.57
2022-08-08T10:50:52.908Z,28.03
2022-08-08T10:52:54.616Z,28.07
2022-08-08T10:54:56.005Z,27.73
2022-08-08T10:56:56.846Z,28.63
2022-08-08T10:58:58.412Z,27.94
2022-08-08T11:01:03.085Z,27.62
2022-08-08T11:03:01.239Z,26.61
2022-08-08T11:05:05.251Z,28
2022-08-08T11:07:03.164Z,27.89
2022-08-08T11:09:09.859Z,26.82
2022-08-08T11:11:07.808Z,27.34
2022-08-08T11:13:28.285Z,26.62
2022-08-08T11:15:07.852Z,26.91
2022-08-08T11:17:08.883Z,27.3
2022-08-08T11:19:10.489Z,26.67
2022-08-08T11:21:19.849Z,26.56
2022-08-08T11:23:12.542Z,26.09
2022-08-08T11:25:14.835Z,26.05
2022-08-08T11:27:37.679Z,25.7
2022-08-08T11:29:16.829Z,26.05
2022-08-08T11:31:17.936Z,25.87
2022-08-08T11:33:19.076Z,26.28
2022-08-08T11:35:24.666Z,26.62
2022-08-08T11:38:34.890Z,27.5
2022-08-08T11:39:23.412Z,26.57
2022-08-08T11:41:24.712Z,26.66
2022-08-08T11:43:25.905Z,26.57
2022-08-08T11:45:26.975Z,26.55
2022-08-08T11:47:39.403Z,26.48
2022-08-08T11:49:29.799Z,27.3
2022-08-08T11:51:37.421Z,25.36
2022-08-08T11:53:42.713Z,25.64
2022-08-08T11:55:33.776Z,25.75
2022-08-08T11:57:35.408Z,24.41
2022-08-08T11:59:41.763Z,24.33
2022-08-08T12:01:37.657Z,25.27
2022-08-08T12:03:39.026Z,25.36
2022-08-08T12:05:40.496Z,25.07
2022-08-08T12:09:57.231Z,25.64
2022-08-08T12:11:45.950Z,25.77
2022-08-08T12:14:03.188Z,25.47
2022-08-08T12:15:47.484Z,26.05
2022-08-08T12:19:50.841Z,25.25
2022-08-08T12:21:58.800Z,24.63
2022-08-08T12:25:52.829Z,23.71
2022-08-08T12:27:53.241Z,25.41
2022-08-08T12:29:55.007Z,23.78
2022-08-08T12:31:55.863Z,24.35
2022-08-08T12:35:58.767Z,24.5
2022-08-08T12:38:01.784Z,24.12
2022-08-08T12:40:02.732Z,24.14
2022-08-08T12:42:04.909Z,25.03
2022-08-08T12:44:03.603Z,25.3
2022-08-08T12:46:04.568Z,25.76
2022-08-08T12:48:09.946Z,22.99
2022-08-08T12:50:07.948Z,24.28
2022-08-08T12:52:14.302Z,24.86
2022-08-08T12:54:19.447Z,23.42
2022-08-08T12:56:18.475Z,23.16
2022-08-08T12:58:15.565Z,24.02
2022-08-08T13:00:19.756Z,23.45
2022-08-08T13:02:16.010Z,22.4
2022-08-08T13:04:18.246Z,22.31
2022-08-08T13:06:18.762Z,22.5
2022-08-08T13:08:20.013Z,23.75
2022-08-08T13:10:21.150Z,24.87
2022-08-08T13:12:28.331Z,25.4
2022-08-08T13:14:23.320Z,25.09
2022-08-08T13:18:27.224Z,24.87
2022-08-08T13:20:27.805Z,24.93
2022-08-08T13:22:28.922Z,25.64
2022-08-08T13:24:39.643Z,23.53
2022-08-08T13:26:31.193Z,24.16
2022-08-08T13:28:33.061Z,23.25
2022-08-08T13:30:34.136Z,23.99
2022-08-08T13:32:34.979Z,24.97
2022-08-08T13:34:36.549Z,23.8
2022-08-08T13:36:37.042Z,24.28
2022-08-08T13:38:38.136Z,24.58
2022-08-08T13:40:40.891Z,23.73
2022-08-08T13:42:41.042Z,23.41
2022-08-08T13:44:44.098Z,23.38
2022-08-08T13:46:43.471Z,23.17
2022-08-08T13:50:50.688Z,22.26
2022-08-08T13:52:46.556Z,22.2
2022-08-08T13:54:49.420Z,23.07
2022-08-08T13:56:59.883Z,23.3
2022-08-08T13:58:55.988Z,24.45
2022-08-08T14:00:50.989Z,24.06
2022-08-08T14:02:52.267Z,23.68
2022-08-08T14:04:53.792Z,24.08
2022-08-08T14:08:56.783Z,23.71
2022-08-08T14:10:56.002Z,24.14
2022-08-08T14:12:57.093Z,24
2022-08-08T14:17:00.628Z,24.07
2022-08-08T14:19:00.490Z,24.42
2022-08-08T14:21:01.302Z,24.09
2022-08-08T14:23:02.487Z,24.38
2022-08-08T14:25:03.317Z,24.95
2022-08-08T14:27:07.566Z,24.04
2022-08-08T14:29:11.508Z,24.7
2022-08-08T14:31:07.605Z,24.1
2022-08-08T14:33:09.280Z,25.06
2022-08-08T14:35:10.133Z,24.2
2022-08-08T14:37:12.788Z,24.48
2022-08-08T14:39:12.170Z,24.41
2022-08-08T14:41:13.724Z,24.31
2022-08-08T14:43:22.366Z,23.99
2022-08-08T14:45:18.268Z,24.22
2022-08-08T14:47:20.973Z,22.9
2022-08-08T14:49:20.285Z,23.58
2022-08-08T14:51:19.548Z,23.21
2022-08-08T14:53:20.593Z,24.34
2022-08-08T14:55:35.447Z,24.5
2022-08-08T14:59:31.861Z,23.99
2022-08-08T15:01:27.809Z,24.34
2022-08-08T15:03:26.951Z,24.22
2022-08-08T15:05:34.099Z,25.03
2022-08-08T15:07:37.187Z,24.23
2022-08-08T15:09:29.835Z,24.82
2022-08-08T15:11:31.591Z,24.54
2022-08-08T15:13:35.043Z,24.45
2022-08-08T15:16:01.104Z,22.91
2022-08-08T15:16:44.834Z,23.74
2022-08-08T15:20:46.683Z,25.33
2022-08-08T15:22:47.820Z,24.09
2022-08-08T15:24:50.126Z,24.9
2022-08-08T15:26:53.084Z,24.32
2022-08-08T15:28:53.249Z,24.39
2022-08-08T15:30:53.703Z,24.51
2022-08-08T15:32:54.826Z,25.33
2022-08-08T15:34:55.768Z,24.99
2022-08-08T15:36:57.494Z,25
2022-08-08T15:38:58.833Z,24.47
2022-08-08T15:40:59.751Z,24.19
2022-08-08T15:43:00.692Z,24.31
2022-08-08T15:45:02.346Z,24.58
2022-08-08T15:47:03.199Z,26.06
2022-08-08T15:49:04.379Z,25.3
2022-08-08T15:51:06.180Z,25.4
2022-08-08T15:53:06.171Z,24.95
2022-08-08T15:55:07.710Z,25.31
2022-08-08T15:57:09.265Z,24.9
2022-08-08T15:59:09.927Z,24.83
2022-08-08T16:03:12.393Z,25.89
2022-08-08T16:05:14.641Z,25.19
2022-08-08T16:13:01.607Z,25.15
2022-08-08T16:13:01.665Z,25.41
2022-08-08T16:13:29.088Z,24.49
2022-08-08T16:15:20.571Z,24.18
2022-08-08T16:19:23.473Z,24.77
2022-08-08T16:21:26.504Z,24.53
2022-08-08T16:23:25.043Z,24.11
2022-08-08T16:25:30.005Z,24.8
2022-08-08T16:27:27.750Z,24.86
2022-08-08T16:29:37.592Z,25.31
2022-08-08T16:31:30.898Z,24.19
2022-08-08T16:33:38.334Z,24.51
2022-08-08T16:35:32.723Z,25.44
2022-08-08T16:37:33.529Z,25.39
2022-08-08T16:40:01.756Z,24.93
2022-08-08T16:41:35.880Z,25.78
2022-08-08T16:43:42.299Z,25.48
2022-08-08T16:46:35.919Z,25.48
2022-08-08T16:47:40.793Z,24.96
2022-08-08T16:49:40.248Z,24.94
2022-08-08T16:54:57.935Z,24.65
2022-08-08T16:54:59.608Z,24.31
2022-08-08T16:55:54.854Z,24.62
2022-08-08T16:58:13.618Z,24.96
2022-08-08T16:59:51.034Z,24.96
2022-08-08T17:01:46.637Z,25.31
2022-08-08T17:03:58.296Z,25.56
2022-08-08T17:05:48.523Z,26.11
2022-08-08T17:07:51.501Z,25.9
2022-08-08T17:09:52.123Z,26.1
2022-08-08T17:11:55.471Z,25.92
2022-08-08T17:14:01.287Z,25.96
2022-08-08T17:15:55.210Z,26.05
2022-08-08T17:18:01.960Z,25.7
2022-08-08T17:19:57.967Z,26.2
2022-08-08T17:22:00.886Z,25.55
2022-08-08T17:24:02.880Z,26.39
2022-08-08T17:26:05.002Z,26.34
2022-08-08T17:28:03.520Z,26.84
2022-08-08T17:30:08.311Z,27.22
2022-08-08T17:32:07.910Z,27.46
2022-08-08T17:34:38.276Z,27.33
2022-08-08T17:36:11.192Z,27.24
2022-08-08T17:38:10.654Z,27.48
2022-08-08T17:40:13.015Z,27.91
2022-08-08T17:42:13.552Z,27.86
2022-08-08T17:44:14.346Z,28.39
2022-08-08T17:46:15.740Z,27.92
2022-08-08T17:50:17.684Z,28.87
2022-08-08T17:52:19.053Z,28.57
2022-08-08T17:54:22.098Z,28.95
2022-08-08T17:56:22.020Z,28.76
2022-08-08T17:58:23.551Z,29.23
2022-08-08T18:00:25.799Z,29.14
2022-08-08T18:02:29.162Z,28.96
2022-08-08T18:04:28.794Z,29.01
2022-08-08T18:06:31.027Z,29.3
2022-08-08T18:08:38.112Z,28.72
2022-08-08T18:12:33.530Z,29.39
2022-08-08T18:14:34.881Z,29.82
2022-08-08T18:16:36.616Z,29.9
2022-08-08T18:18:43.042Z,30.01
2022-08-08T18:20:44.486Z,30.2
2022-08-08T18:22:50.436Z,30.4
2022-08-08T18:24:42.554Z,30.81
2022-08-08T18:26:46.541Z,31.01
2022-08-08T18:28:54.527Z,30.4
2022-08-08T18:30:46.225Z,30.61
2022-08-08T18:32:47.847Z,30.41
2022-08-08T18:34:49.489Z,30.47
2022-08-08T18:36:49.593Z,30.65
2022-08-08T18:38:50.995Z,30.83
2022-08-08T18:42:53.757Z,31.04
2022-08-08T18:44:57.179Z,31.38
2022-08-08T18:46:57.872Z,31.13
2022-08-08T18:48:58.640Z,31.09
2022-08-08T18:51:00.093Z,31.09
2022-08-08T18:53:01.127Z,31.39
2022-08-08T18:55:10.028Z,31.63
2022-08-08T18:57:04.246Z,32.06
2022-08-08T18:59:05.717Z,32.08
2022-08-08T19:01:06.925Z,32.41
2022-08-08T19:03:08.344Z,32.58
2022-08-08T19:05:09.711Z,32.75
2022-08-08T19:07:11.023Z,32.93
2022-08-08T19:09:13.130Z,33.06
2022-08-08T19:11:17.423Z,33.47
2022-08-08T19:13:20.808Z,33.84
2022-08-08T19:15:16.492Z,34.05
2022-08-08T19:17:29.175Z,34.6
2022-08-08T19:19:18.829Z,34.79
2022-08-08T19:21:23.155Z,34.96
2022-08-08T19:25:44.276Z,35.67
2022-08-08T19:27:52.991Z,35.93
2022-08-08T19:29:26.518Z,36.06
2022-08-08T19:31:31.161Z,36.28
2022-08-08T19:33:39.835Z,36.39
2022-08-08T19:35:44.117Z,36.46
2022-08-08T19:37:42.484Z,36.52
2022-08-08T19:41:34.976Z,36.59
2022-08-08T19:43:38.411Z,36.48
2022-08-08T19:45:57.777Z,36.95
2022-08-08T19:47:39.423Z,37.41
2022-08-08T19:49:43.022Z,37.79
2022-08-08T19:51:43.164Z,37.94
2022-08-08T19:53:46.874Z,38.24
2022-08-08T19:55:44.562Z,38.35
2022-08-08T19:57:45.438Z,38.69
2022-08-08T19:59:46.626Z,39.1
2022-08-08T20:01:50.519Z,39.63
2022-08-08T20:04:00.719Z,40.5
2022-08-08T20:06:12.632Z,41.54
2022-08-08T20:08:37.589Z,41.68
2022-08-08T20:09:55.524Z,41.71
2022-08-08T20:14:13.736Z,42.49
2022-08-08T20:16:00.076Z,42.54
2022-08-08T20:17:57.798Z,42.55
2022-08-08T20:19:58.849Z,42.78
2022-08-08T20:24:00.779Z,42.85
2022-08-08T20:26:02.303Z,42.67
2022-08-08T20:28:07.171Z,41.21
2022-08-08T20:30:03.828Z,41.84
2022-08-08T20:32:07.853Z,41.97
2022-08-08T20:34:28.384Z,42.46
2022-08-08T20:36:08.784Z,42.94
2022-08-08T20:38:09.326Z,43.03
2022-08-08T20:40:10.873Z,43.1
2022-08-08T20:42:12.627Z,43.48
2022-08-08T20:44:13.747Z,44.11
2022-08-08T20:46:15.143Z,44.56
2022-08-08T20:48:21.208Z,44.64
2022-08-08T20:50:17.487Z,44.83
2022-08-08T20:52:18.445Z,45.17
2022-08-08T20:54:25.909Z,45.64
2022-08-08T20:56:34.838Z,46.02
2022-08-08T20:58:22.936Z,46.32
2022-08-08T21:00:24.336Z,46.1
2022-08-08T21:02:26.440Z,46.41
2022-08-08T21:04:27.319Z,47.21
2022-08-08T21:06:33.694Z,47.44
2022-08-08T21:08:34.094Z,46.96
2022-08-08T21:10:31.794Z,46.74
2022-08-08T21:12:33.631Z,46.38
2022-08-08T21:14:35.030Z,46.26
2022-08-08T21:16:36.349Z,45.74
2022-08-08T21:18:37.667Z,44.88
2022-08-08T21:20:39.122Z,45.45
2022-08-08T21:22:40.244Z,46.3
2022-08-08T21:24:41.919Z,45.69
2022-08-08T21:26:42.534Z,45.33
2022-08-08T21:28:46.268Z,47.17
2022-08-08T21:30:49.581Z,47.36
2022-08-08T21:32:50.917Z,47.88
2022-08-08T21:34:49.442Z,48.36
2022-08-08T21:36:50.270Z,49.34
2022-08-08T21:38:51.386Z,49.13
2022-08-08T21:40:53.572Z,48.95
2022-08-08T21:42:54.615Z,49.13
2022-08-08T21:44:58.297Z,49.49
2022-08-08T21:48:58.325Z,50.03
2022-08-08T21:50:59.706Z,50.28
2022-08-08T21:54:19.080Z,50.62
2022-08-08T21:55:04.046Z,50.64
2022-08-08T21:57:04.516Z,50.8
2022-08-08T21:59:09.733Z,50.69
2022-08-08T22:01:07.796Z,50.58
2022-08-08T22:01:52.163Z,50.53
2022-08-08T22:03:52.452Z,50.4
2022-08-08T22:05:53.754Z,51.01
2022-08-08T22:07:58.636Z,51.2
2022-08-08T22:10:09.069Z,52.09
2022-08-08T22:12:02.456Z,53.34
2022-08-08T22:13:59.526Z,54.48
2022-08-08T22:16:01.069Z,55.13
2022-08-08T22:18:01.715Z,54.67
2022-08-08T22:20:11.672Z,54.79
2022-08-08T22:22:04.763Z,54.69
2022-08-08T22:24:05.796Z,54.81
2022-08-08T22:26:20.199Z,54.8
2022-08-08T22:28:15.085Z,55.4
2022-08-08T22:30:09.946Z,55.51
2022-08-08T22:32:11.236Z,55.25
2022-08-08T22:34:15.443Z,55.71
2022-08-08T22:36:14.080Z,56.06
2022-08-08T22:38:17.420Z,55.7
2022-08-08T22:40:17.281Z,55.15
2022-08-08T22:42:24.143Z,54.79
2022-08-08T22:44:19.544Z,54.96
2022-08-08T22:46:20.920Z,55.56
2022-08-08T22:48:22.422Z,55.9
2022-08-08T22:50:26.621Z,56.01
2022-08-08T22:52:25.771Z,55.76
2022-08-08T22:54:28.786Z,56.23
2022-08-08T22:56:29.098Z,56.01
2022-08-08T22:58:31.079Z,55.7
2022-08-08T23:00:31.702Z,55.27
2022-08-08T23:02:33.041Z,55.74
2022-08-08T23:04:34.600Z,56.26
2022-08-08T23:06:35.200Z,56.74
2022-08-08T23:08:41.369Z,57.32
2022-08-08T23:10:38.379Z,57.56
2022-08-08T23:12:40.939Z,58.12
2022-08-08T23:14:41.242Z,58.25
2022-08-08T23:16:43.628Z,58.38
2022-08-08T23:18:44.763Z,58.89
2022-08-08T23:20:51.519Z,59.09
2022-08-08T23:24:48.691Z,59.55
2022-08-08T23:26:53.176Z,59.77
2022-08-08T23:28:51.902Z,59.79
2022-08-08T23:30:52.979Z,60.18
2022-08-08T23:32:54.679Z,60.78
2022-08-08T23:34:58.664Z,61.35
2022-08-08T23:36:58.110Z,62.27
2022-08-08T23:38:58.759Z,62.65
2022-08-08T23:41:00.405Z,62.46
2022-08-08T23:48:59.434Z,62.33
2022-08-08T23:49:14.676Z,61.22
2022-08-08T23:51:12.606Z,60.74
2022-08-08T23:53:08.268Z,60.32
2022-08-08T23:55:14.824Z,60.51
2022-08-08T23:57:15.144Z,60.42
2022-08-08T23:59:16.740Z,60.41
